Time;durP1;ratioP1;P1;durP2;ratioP2;P2;SDS_P1;SDS_P2;PMS_P1;PMS_P2;Temp;Humidity;BMP_temperature;BMP_pressure;BME280_temperature;BME280_humidity;BME280_pressure;Samples;Min_cycle;Max_cycle;Signal;HPM_P1;HPM_P2
2022/05/26 00:01:24;;;;;;;6.25;2.17;;;13.20;85.30;;;;;;5098527;28;20598;-72
2022/05/26 00:03:51;;;;;;;3.22;2.10;;;13.30;84.90;;;;;;5102860;28;20042;-73
2022/05/26 00:06:19;;;;;;;6.40;2.03;;;13.30;85.10;;;;;;5109418;28;20027;-73
2022/05/26 00:08:45;;;;;;;4.32;2.42;;;13.30;84.70;;;;;;5103577;28;20096;-72
2022/05/26 00:11:14;;;;;;;5.97;2.25;;;13.30;84.60;;;;;;5108520;28;20110;-72
2022/05/26 00:13:41;;;;;;;3.95;2.22;;;13.30;84.60;;;;;;5107931;28;20489;-73
2022/05/26 00:16:07;;;;;;;5.05;2.03;;;13.30;84.70;;;;;;5104169;28;20592;-72
2022/05/26 00:18:33;;;;;;;4.60;2.30;;;13.30;84.70;;;;;;5103041;28;20023;-72
2022/05/26 00:20:59;;;;;;;4.90;2.08;;;13.30;84.60;;;;;;5106894;28;20165;-72
2022/05/26 00:23:25;;;;;;;4.57;2.28;;;13.30;84.70;;;;;;5108278;28;20126;-75
2022/05/26 00:25:50;;;;;;;4.13;2.30;;;13.30;84.70;;;;;;5105847;28;20035;-73
2022/05/26 00:28:16;;;;;;;4.90;2.35;;;13.30;84.60;;;;;;5108446;28;20043;-73
2022/05/26 00:30:41;;;;;;;7.22;2.20;;;13.40;84.70;;;;;;5108155;28;20027;-72
2022/05/26 00:33:07;;;;;;;4.38;2.45;;;13.40;84.30;;;;;;5101676;27;20070;-72
2022/05/26 00:35:37;;;;;;;5.35;2.70;;;13.40;84.40;;;;;;5094126;28;20035;-73
2022/05/26 00:38:07;;;;;;;3.53;2.05;;;13.50;84.20;;;;;;5108244;28;20212;-74
2022/05/26 00:40:33;;;;;;;5.90;2.50;;;13.50;84.50;;;;;;5107953;28;20028;-73
2022/05/26 00:42:59;;;;;;;9.00;2.88;;;13.50;84.50;;;;;;5100303;28;20052;-74
2022/05/26 00:45:29;;;;;;;5.80;2.55;;;13.50;84.50;;;;;;5106472;27;20032;-74
2022/05/26 00:47:55;;;;;;;6.57;3.08;;;13.60;84.20;;;;;;5106174;28;20023;-74
2022/05/26 00:50:26;;;;;;;7.13;2.85;;;13.60;84.50;;;;;;5094743;28;20016;-74
2022/05/26 00:52:58;;;;;;;4.57;2.75;;;13.60;84.20;;;;;;5106462;28;20144;-74
2022/05/26 00:55:27;;;;;;;6.35;2.83;;;13.60;84.50;;;;;;5108158;28;20050;-74
2022/05/26 00:58:18;;;;;;;6.75;3.50;;;13.60;85.20;;;;;;5107649;28;20048;-74
2022/05/26 01:00:44;;;;;;;7.53;3.60;;;13.40;87.40;;;;;;5099660;28;20527;-74
2022/05/26 01:03:22;;;;;;;9.73;3.97;;;13.10;89.10;;;;;;5101397;27;20138;-74
2022/05/26 01:05:58;;;;;;;9.50;5.40;;;13.00;90.10;;;;;;5107359;28;20036;-74
2022/05/26 01:08:36;;;;;;;8.02;4.35;;;12.90;90.70;;;;;;5098047;28;20023;-74
2022/05/26 01:11:01;;;;;;;10.13;4.85;;;12.80;91.10;;;;;;5107342;28;20032;-74
2022/05/26 01:13:29;;;;;;;11.50;4.53;;;12.80;91.10;;;;;;5106164;28;20027;-74
2022/05/26 01:16:05;;;;;;;9.65;4.90;;;12.80;91.30;;;;;;5105965;28;20027;-74
2022/05/26 01:18:40;;;;;;;7.65;4.95;;;12.70;91.40;;;;;;5104975;28;20024;-74
2022/05/26 01:21:14;;;;;;;7.82;5.72;;;12.70;91.70;;;;;;5107725;28;20020;-74
2022/05/26 01:24:18;;;;;;;11.45;5.40;;;12.60;91.80;;;;;;5107052;28;20043;-74
2022/05/26 01:27:05;;;;;;;10.57;5.90;;;12.60;92.00;;;;;;5018122;28;20065;-74
2022/05/26 01:30:11;;;;;;;10.50;6.07;;;12.60;92.10;;;;;;5101801;28;20043;-74
2022/05/26 01:33:06;;;;;;;7.93;5.85;;;12.60;92.00;;;;;;5101911;28;20089;-74
2022/05/26 01:35:38;;;;;;;11.15;6.05;;;12.60;92.10;;;;;;5097918;28;20039;-74
2022/05/26 01:38:26;;;;;;;11.18;6.70;;;12.60;92.10;;;;;;5106895;28;20039;-74
2022/05/26 01:41:25;;;;;;;9.05;6.00;;;12.70;91.90;;;;;;5106332;28;20032;-75
2022/05/26 01:44:07;;;;;;;11.00;6.07;;;12.70;91.70;;;;;;5099295;28;20074;-74
2022/05/26 01:46:40;;;;;;;11.40;6.22;;;12.70;91.50;;;;;;5105143;28;20556;-74
2022/05/26 01:49:25;;;;;;;9.60;5.85;;;12.80;91.60;;;;;;5106244;28;20023;-76
2022/05/26 01:52:09;;;;;;;11.25;6.90;;;12.80;91.20;;;;;;5094192;28;20434;-75
2022/05/26 01:54:57;;;;;;;11.50;6.72;;;12.80;91.40;;;;;;5106113;28;20031;-73
2022/05/26 01:57:30;;;;;;;12.63;6.32;;;12.90;91.40;;;;;;5104811;28;20065;-73
2022/05/26 02:00:00;;;;;;;9.57;6.35;;;12.90;91.30;;;;;;5102028;28;20126;-73
2022/05/26 02:02:31;;;;;;;10.77;6.50;;;13.00;91.00;;;;;;5101697;28;20227;-74
2022/05/26 02:05:02;;;;;;;10.43;6.70;;;13.00;91.00;;;;;;5105338;28;20058;-73
2022/05/26 02:07:44;;;;;;;11.57;6.72;;;13.00;90.90;;;;;;5102773;28;20464;-75
2022/05/26 02:10:20;;;;;;;8.55;6.53;;;13.00;91.10;;;;;;5093607;28;20028;-73
2022/05/26 02:12:57;;;;;;;9.20;6.07;;;13.00;91.10;;;;;;5106214;28;20028;-73
2022/05/26 02:15:35;;;;;;;11.70;7.22;;;13.00;91.10;;;;;;5103757;28;20102;-73
2022/05/26 02:18:32;;;;;;;10.07;6.40;;;13.00;91.00;;;;;;5103252;28;20028;-74
2022/05/26 02:21:10;;;;;;;13.35;6.80;;;13.10;90.70;;;;;;5090797;28;20070;-76
2022/05/26 02:23:45;;;;;;;12.13;7.30;;;13.00;90.80;;;;;;5104295;28;20609;-75
2022/05/26 02:26:10;;;;;;;9.27;6.43;;;13.10;90.90;;;;;;5102871;28;20039;-73
2022/05/26 02:31:24;;;;;;;11.70;6.97;;;13.00;91.00;;;;;;5102445;28;20097;-74
2022/05/26 02:33:53;;;;;;;10.10;6.65;;;13.00;91.00;;;;;;5099198;27;20039;-76
2022/05/26 02:36:20;;;;;;;11.68;7.38;;;13.00;91.00;;;;;;5089693;28;20052;-75
2022/05/26 02:38:46;;;;;;;10.50;7.10;;;13.10;91.10;;;;;;5095954;28;20430;-75
2022/05/26 02:41:13;;;;;;;10.50;7.10;;;13.10;91.10;;;;;;5103805;28;20110;-75
2022/05/26 02:43:39;;;;;;;10.65;6.85;;;13.00;90.90;;;;;;5095760;28;20058;-75
2022/05/26 02:46:13;;;;;;;14.15;6.97;;;13.10;90.90;;;;;;5106060;28;20042;-75
2022/05/26 02:49:15;;;;;;;9.75;6.88;;;13.10;90.80;;;;;;5101781;28;20034;-75
2022/05/26 02:51:52;;;;;;;9.38;7.47;;;13.00;91.00;;;;;;5104849;28;20420;-75
2022/05/26 02:54:21;;;;;;;10.55;6.43;;;13.00;91.10;;;;;;5105494;28;20039;-75
2022/05/26 02:57:11;;;;;;;11.88;7.22;;;13.00;91.20;;;;;;5106016;28;20026;-75
2022/05/26 02:59:57;;;;;;;12.07;7.07;;;13.00;91.20;;;;;;5095655;28;20045;-75
2022/05/26 03:02:51;;;;;;;11.68;6.60;;;13.00;91.20;;;;;;5106796;28;20031;-75
2022/05/26 03:05:25;;;;;;;11.63;6.63;;;13.00;91.20;;;;;;5113655;28;20043;-75
2022/05/26 03:07:54;;;;;;;12.63;6.25;;;13.00;91.30;;;;;;5093270;28;20083;-75
2022/05/26 03:10:26;;;;;;;7.90;5.95;;;13.00;91.30;;;;;;5104345;28;20096;-75
2022/05/26 03:12:54;;;;;;;11.52;7.28;;;13.00;91.40;;;;;;5102025;28;20027;-75
2022/05/26 03:15:20;;;;;;;11.05;5.43;;;13.00;91.20;;;;;;5100496;28;20069;-75
2022/05/26 03:17:46;;;;;;;7.95;5.82;;;13.00;91.20;;;;;;5101744;28;20076;-74
2022/05/26 03:20:12;;;;;;;10.10;6.47;;;13.00;91.40;;;;;;5102609;28;20028;-75
2022/05/26 03:22:38;;;;;;;11.00;6.07;;;13.00;91.40;;;;;;5104768;28;20032;-75
2022/05/26 03:25:04;;;;;;;11.05;7.00;;;13.00;91.40;;;;;;5102028;28;20483;-75
2022/05/26 03:27:29;;;;;;;9.80;6.32;;;13.00;91.50;;;;;;5102930;28;20028;-75
2022/05/26 03:29:55;;;;;;;9.48;7.13;;;13.00;91.60;;;;;;5099145;28;20364;-75
2022/05/26 03:32:21;;;;;;;13.27;7.22;;;13.00;91.60;;;;;;5099586;28;20031;-75
2022/05/26 03:43:00;;;;;;;9.30;7.43;;;13.00;92.10;;;;;;5103915;28;20077;-75
2022/05/26 03:45:26;;;;;;;12.63;7.85;;;13.00;92.30;;;;;;5105759;28;20109;-75
2022/05/26 03:47:51;;;;;;;9.02;6.38;;;13.00;92.20;;;;;;5101320;28;20528;-75
2022/05/26 03:50:18;;;;;;;11.10;7.57;;;13.00;92.20;;;;;;5088919;28;20147;-75
2022/05/26 03:52:43;;;;;;;9.73;7.45;;;13.00;92.30;;;;;;5103158;28;20110;-75
2022/05/26 03:55:09;;;;;;;10.75;7.43;;;13.00;92.30;;;;;;5105501;28;20367;-75
2022/05/26 03:57:35;;;;;;;10.77;7.57;;;13.00;92.50;;;;;;5104121;28;20046;-75
2022/05/26 04:00:01;;;;;;;10.32;8.05;;;13.00;92.40;;;;;;5105129;28;20023;-73
2022/05/26 04:02:26;;;;;;;12.25;7.15;;;13.00;92.50;;;;;;5102648;28;20038;-72
2022/05/26 04:04:52;;;;;;;12.63;7.22;;;13.00;92.70;;;;;;5098081;28;20043;-72
2022/05/26 04:07:17;;;;;;;9.38;6.82;;;13.00;92.80;;;;;;5101794;28;20378;-72
2022/05/26 04:09:43;;;;;;;10.10;7.22;;;13.00;92.80;;;;;;5108525;28;20040;-72
2022/05/26 04:12:10;;;;;;;10.63;7.13;;;13.00;92.90;;;;;;5108931;28;20046;-72
2022/05/26 04:14:35;;;;;;;11.70;7.80;;;13.00;92.90;;;;;;5102591;28;20028;-72
2022/05/26 04:17:01;;;;;;;13.90;8.60;;;13.00;93.00;;;;;;5105563;28;20703;-72
2022/05/26 04:19:27;;;;;;;12.45;7.28;;;13.00;93.00;;;;;;5095668;28;20038;-68
2022/05/26 04:24:37;;;;;;;10.90;7.15;;;13.00;93.00;;;;;;5106991;28;20216;-69
2022/05/26 04:27:03;;;;;;;11.98;7.97;;;13.00;93.10;;;;;;5108404;28;20129;-70
2022/05/26 04:29:29;;;;;;;9.48;7.03;;;13.00;93.00;;;;;;5106556;28;20538;-70
2022/05/26 04:31:54;;;;;;;12.60;7.07;;;13.00;93.00;;;;;;5103745;28;20028;-71
2022/05/26 04:34:20;;;;;;;11.30;6.97;;;13.00;93.00;;;;;;5116778;27;20054;-70
2022/05/26 04:36:46;;;;;;;10.77;6.70;;;13.00;93.00;;;;;;5108369;28;20030;-70
2022/05/26 04:39:14;;;;;;;10.90;6.53;;;13.00;92.90;;;;;;5108122;28;20419;-70
2022/05/26 04:41:41;;;;;;;8.98;6.50;;;13.00;92.90;;;;;;5104709;28;20092;-71
2022/05/26 04:44:07;;;;;;;10.60;6.53;;;13.10;92.80;;;;;;5105882;28;20035;-71
2022/05/26 04:46:33;;;;;;;10.68;6.50;;;13.10;92.80;;;;;;5106876;28;20126;-70
2022/05/26 04:48:58;;;;;;;9.07;6.20;;;13.00;92.70;;;;;;5100512;28;20039;-70
2022/05/26 04:51:24;;;;;;;9.98;6.32;;;13.10;92.60;;;;;;5107934;28;20246;-70
2022/05/26 04:53:50;;;;;;;8.43;6.53;;;13.10;92.60;;;;;;5107887;28;20028;-71
2022/05/26 04:56:15;;;;;;;10.75;6.50;;;13.10;92.60;;;;;;5107852;28;20032;-70
2022/05/26 04:58:41;;;;;;;8.07;5.65;;;13.10;92.40;;;;;;5098167;28;20031;-69
2022/05/26 05:01:14;;;;;;;10.48;6.15;;;13.20;92.10;;;;;;5106505;28;20055;-70
2022/05/26 05:03:40;;;;;;;10.93;6.60;;;13.30;92.10;;;;;;5106998;28;20027;-70
2022/05/26 05:06:05;;;;;;;8.40;6.38;;;13.40;91.70;;;;;;5097474;28;20486;-70
2022/05/26 05:08:31;;;;;;;9.07;6.07;;;13.30;91.70;;;;;;5105667;28;20032;-70
2022/05/26 05:10:57;;;;;;;10.43;6.60;;;13.30;91.50;;;;;;5107644;28;20477;-72
2022/05/26 05:13:23;;;;;;;10.80;6.78;;;13.40;91.60;;;;;;5105782;28;20623;-72
2022/05/26 05:15:57;;;;;;;12.88;6.18;;;13.40;91.30;;;;;;5103904;28;20103;-72
2022/05/26 05:18:23;;;;;;;10.27;6.35;;;13.40;91.50;;;;;;5101579;28;20114;-73
2022/05/26 05:20:49;;;;;;;10.13;5.90;;;13.40;91.50;;;;;;5097965;28;20024;-73
2022/05/26 05:23:15;;;;;;;11.38;6.10;;;13.50;91.50;;;;;;5104722;28;20454;-72
2022/05/26 05:25:45;;;;;;;9.07;6.38;;;13.50;91.30;;;;;;5102032;28;20169;-73
2022/05/26 05:28:21;;;;;;;8.27;5.63;;;13.50;91.20;;;;;;5105756;28;20036;-72
2022/05/26 05:30:55;;;;;;;11.85;6.30;;;13.60;91.20;;;;;;5091677;28;20081;-73
2022/05/26 05:33:27;;;;;;;10.00;6.03;;;13.70;90.80;;;;;;5102004;27;20139;-73
2022/05/26 05:36:02;;;;;;;10.82;6.30;;;13.70;90.70;;;;;;5093762;28;20111;-73
2022/05/26 05:38:28;;;;;;;8.38;5.70;;;13.70;90.40;;;;;;5106327;28;20566;-73
2022/05/26 05:40:53;;;;;;;10.07;5.40;;;13.90;90.20;;;;;;5093701;28;20053;-73
2022/05/26 05:43:19;;;;;;;9.98;5.05;;;14.00;89.80;;;;;;5104681;28;20124;-74
2022/05/26 05:45:45;;;;;;;9.35;4.80;;;14.10;89.30;;;;;;5099720;28;20059;-72
2022/05/26 05:48:11;;;;;;;8.10;4.20;;;14.00;88.20;;;;;;5104912;28;20016;-71
2022/05/26 05:50:37;;;;;;;8.07;4.45;;;14.10;88.40;;;;;;5101961;28;20031;-72
2022/05/26 05:53:03;;;;;;;8.57;4.28;;;14.20;88.10;;;;;;5105509;28;20028;-73
2022/05/26 05:55:30;;;;;;;9.40;3.80;;;14.30;85.80;;;;;;5105259;28;20390;-74
2022/05/26 05:57:55;;;;;;;10.25;3.60;;;14.40;85.80;;;;;;5106116;28;20032;-73
2022/05/26 06:00:21;;;;;;;9.70;4.22;;;14.30;85.70;;;;;;5103282;28;20027;-73
2022/05/26 06:02:46;;;;;;;9.07;3.70;;;14.30;85.70;;;;;;5106163;28;20042;-73
2022/05/26 06:05:12;;;;;;;9.50;3.97;;;14.40;85.80;;;;;;5102488;28;20455;-73
2022/05/26 06:07:40;;;;;;;8.35;3.45;;;14.50;85.30;;;;;;5098506;28;20080;-71
2022/05/26 06:10:10;;;;;;;10.73;3.92;;;14.50;85.70;;;;;;5104791;28;20030;-71
2022/05/26 06:12:36;;;;;;;8.88;3.40;;;14.60;84.90;;;;;;5105140;28;20394;-71
2022/05/26 06:15:03;;;;;;;11.32;3.38;;;14.60;84.40;;;;;;5094354;28;20472;-73
2022/05/26 06:17:28;;;;;;;10.55;3.03;;;14.90;83.90;;;;;;5103346;28;20055;-74
2022/05/26 06:19:54;;;;;;;8.98;2.60;;;15.00;82.00;;;;;;5105716;28;20086;-72
2022/05/26 06:22:21;;;;;;;6.57;2.90;;;15.00;82.10;;;;;;5103418;28;20031;-73
2022/05/26 06:24:48;;;;;;;10.50;2.83;;;14.90;82.00;;;;;;5098902;28;20367;-73
2022/05/26 06:29:49;;;;;;;6.75;2.85;;;14.90;82.00;;;;;;5094444;28;20023;-73
2022/05/26 06:30:07;;;;;;;7.82;2.67;;;15.10;82.10;;;;;;5104197;28;20028;-73
2022/05/26 06:38:17;;;;;;;10.50;3.10;;;15.20;80.30;;;;;;5105854;28;20397;-73
2022/05/26 06:40:42;;;;;;;11.13;3.20;;;15.20;80.80;;;;;;5099201;28;20450;-74
2022/05/26 06:43:08;;;;;;;10.88;3.30;;;15.10;81.10;;;;;;5102882;28;20098;-73
2022/05/26 06:45:35;;;;;;;8.82;3.03;;;15.30;81.00;;;;;;5103506;28;20467;-72
2022/05/26 06:48:01;;;;;;;9.68;2.85;;;15.60;79.40;;;;;;5096139;28;20024;-72
2022/05/26 06:50:27;;;;;;;8.50;2.97;;;15.40;79.00;;;;;;5094880;28;20034;-73
2022/05/26 06:52:52;;;;;;;10.63;2.80;;;15.20;79.90;;;;;;5102726;28;20035;-73
2022/05/26 06:55:18;;;;;;;6.18;2.47;;;15.40;79.60;;;;;;5102065;28;20115;-73
2022/05/26 06:57:44;;;;;;;5.57;2.15;;;15.50;78.60;;;;;;5093479;28;20049;-73
2022/05/26 07:00:12;;;;;;;8.90;2.75;;;15.60;77.60;;;;;;5093359;28;20028;-73
2022/05/26 07:02:38;;;;;;;10.15;2.60;;;15.80;76.90;;;;;;5103218;28;20413;-72
2022/05/26 07:05:04;;;;;;;6.90;2.15;;;15.80;76.70;;;;;;5096099;28;20016;-73
2022/05/26 07:07:32;;;;;;;8.15;2.40;;;15.90;76.10;;;;;;5104055;28;20030;-73
2022/05/26 07:09:58;;;;;;;3.67;1.63;;;15.70;76.00;;;;;;5105139;28;20081;-73
2022/05/26 07:12:24;;;;;;;6.30;1.83;;;16.10;73.70;;;;;;5104268;28;20035;-70
2022/05/26 07:14:50;;;;;;;10.05;2.08;;;16.30;73.10;;;;;;5102077;28;20311;-71
2022/05/26 07:17:16;;;;;;;6.20;1.55;;;16.40;71.70;;;;;;5103287;28;20067;-72
2022/05/26 07:19:42;;;;;;;6.72;1.70;;;16.30;72.20;;;;;;5105670;28;20024;-72
2022/05/26 07:22:08;;;;;;;5.72;1.38;;;16.00;71.70;;;;;;5095106;28;20571;-72
2022/05/26 07:24:33;;;;;;;7.20;1.95;;;16.30;70.30;;;;;;5091483;28;20297;-72
2022/05/26 07:27:00;;;;;;;8.68;1.55;;;16.40;69.90;;;;;;5102500;28;20115;-72
2022/05/26 07:29:26;;;;;;;4.88;1.45;;;16.20;69.50;;;;;;5091605;28;20024;-71
2022/05/26 07:31:52;;;;;;;3.50;1.17;;;15.90;67.40;;;;;;5101488;28;20040;-72
2022/05/26 07:34:18;;;;;;;6.20;1.27;;;16.40;67.20;;;;;;5100247;28;20043;-72
2022/05/26 07:42:16;;;;;;;5.60;1.13;;;17.30;63.70;;;;;;5106175;28;20101;-72
2022/05/26 07:44:45;;;;;;;7.47;1.38;;;17.10;64.00;;;;;;5107771;28;20035;-72
2022/05/26 07:47:10;;;;;;;6.80;1.25;;;17.00;63.40;;;;;;5106742;28;20070;-72
2022/05/26 07:49:38;;;;;;;6.63;1.25;;;17.30;62.40;;;;;;5108676;28;20024;-72
2022/05/26 07:52:04;;;;;;;3.50;1.15;;;17.30;62.80;;;;;;5107735;28;20039;-72
2022/05/26 07:54:30;;;;;;;3.83;1.27;;;17.30;61.30;;;;;;5108569;28;20459;-72
2022/05/26 07:56:56;;;;;;;4.88;1.30;;;17.30;60.40;;;;;;5100233;28;20027;-72
2022/05/26 07:59:23;;;;;;;4.57;1.50;;;16.80;61.40;;;;;;5109022;28;20031;-72
2022/05/26 08:01:48;;;;;;;4.70;1.15;;;17.10;60.40;;;;;;5105397;27;20015;-72
2022/05/26 08:04:15;;;;;;;5.55;1.10;;;16.80;61.50;;;;;;5106092;28;20465;-72
2022/05/26 08:06:45;;;;;;;8.60;1.25;;;16.70;62.80;;;;;;5094805;28;20032;-72
2022/05/26 08:09:11;;;;;;;3.40;0.95;;;16.70;63.30;;;;;;5108555;28;20039;-72
2022/05/26 08:11:37;;;;;;;6.93;1.20;;;16.70;64.10;;;;;;5108510;28;20027;-72
2022/05/26 08:14:03;;;;;;;4.80;0.95;;;16.60;64.10;;;;;;5107086;28;20628;-72
2022/05/26 08:16:28;;;;;;;7.05;1.25;;;16.50;64.10;;;;;;5108438;28;20042;-72
2022/05/26 08:18:54;;;;;;;3.80;1.10;;;16.60;64.20;;;;;;5105570;28;20027;-72
2022/05/26 08:21:19;;;;;;;5.85;1.25;;;17.00;63.10;;;;;;5107042;28;20461;-72
2022/05/26 08:23:45;;;;;;;8.35;1.23;;;17.20;63.20;;;;;;5107932;28;20039;-72
2022/05/26 08:26:11;;;;;;;4.10;1.23;;;17.40;60.80;;;;;;5108263;28;20032;-72
2022/05/26 08:28:37;;;;;;;6.97;1.08;;;17.80;61.30;;;;;;5107054;28;20076;-72
2022/05/26 08:31:02;;;;;;;3.65;1.08;;;17.80;60.20;;;;;;5107343;28;20035;-72
2022/05/26 08:33:28;;;;;;;4.45;1.00;;;17.50;59.20;;;;;;5102629;28;20512;-71
2022/05/26 08:36:05;;;;;;;3.58;1.08;;;16.90;59.90;;;;;;5099091;28;20024;-71
2022/05/26 08:38:31;;;;;;;6.32;1.05;;;17.00;60.70;;;;;;5103049;28;20559;-71
2022/05/26 08:40:57;;;;;;;7.78;1.10;;;17.30;61.00;;;;;;5101990;28;20209;-71
2022/05/26 08:43:32;;;;;;;3.65;1.00;;;17.90;59.90;;;;;;5106139;28;20545;-72
2022/05/26 08:45:58;;;;;;;3.60;1.10;;;18.30;58.90;;;;;;5097125;28;20495;-71
2022/05/26 08:48:45;;;;;;;4.15;0.57;;;18.00;58.90;;;;;;5092266;28;20356;-72
2022/05/26 08:51:19;;;;;;;2.22;0.70;;;18.00;55.80;;;;;;5096724;28;20054;-72
2022/05/26 08:53:44;;;;;;;3.25;0.73;;;17.80;56.40;;;;;;5107045;28;20066;-71
2022/05/26 08:56:15;;;;;;;3.30;0.70;;;17.50;57.00;;;;;;5098118;28;20395;-72
2022/05/26 08:58:48;;;;;;;2.85;0.75;;;17.90;57.00;;;;;;5103729;28;20034;-71
2022/05/26 09:01:20;;;;;;;4.95;1.15;;;17.50;58.50;;;;;;5096268;28;20468;-71
2022/05/26 09:03:45;;;;;;;3.72;1.05;;;17.60;59.00;;;;;;5102781;28;20120;-71
2022/05/26 09:06:14;;;;;;;6.00;1.05;;;18.10;57.50;;;;;;5106620;28;20046;-71
2022/05/26 09:14:19;;;;;;;5.22;1.15;;;18.50;54.70;;;;;;5097505;28;20139;-71
2022/05/26 09:16:45;;;;;;;4.68;0.88;;;18.50;55.00;;;;;;5102953;28;20031;-72
2022/05/26 09:19:17;;;;;;;4.78;1.10;;;18.30;56.70;;;;;;5105474;28;20509;-71
2022/05/26 09:21:45;;;;;;;3.70;1.08;;;18.10;55.50;;;;;;5104521;28;20111;-71
2022/05/26 09:24:33;;;;;;;1.10;0.45;;;17.70;57.50;;;;;;5107034;28;20463;-71
2022/05/26 09:27:36;;;;;;;6.72;1.08;;;17.40;55.50;;;;;;5106174;28;20386;-71
2022/05/26 09:30:34;;;;;;;1.55;0.45;;;17.20;56.70;;;;;;5093581;28;20133;-71
2022/05/26 09:32:59;;;;;;;2.97;0.55;;;18.00;56.40;;;;;;5069203;27;20055;-72
2022/05/26 09:35:31;;;;;;;4.50;0.82;;;18.30;55.40;;;;;;5089528;28;20059;-71
2022/05/26 09:38:00;;;;;;;3.10;0.82;;;18.60;56.00;;;;;;5088534;28;20081;-71
2022/05/26 09:40:33;;;;;;;3.80;0.90;;;19.00;54.80;;;;;;5105078;28;20076;-71
2022/05/26 09:43:09;;;;;;;4.50;0.60;;;18.90;53.80;;;;;;5105844;28;20039;-72
2022/05/26 09:45:46;;;;;;;1.73;0.60;;;18.50;54.20;;;;;;5104826;28;20123;-71
2022/05/26 09:48:30;;;;;;;2.60;0.85;;;18.00;53.80;;;;;;5097831;28;20028;-72
2022/05/26 09:51:39;;;;;;;1.88;0.68;;;18.00;54.70;;;;;;5090008;28;20042;-71
2022/05/26 09:54:22;;;;;;;2.15;0.60;;;17.50;52.70;;;;;;5105174;28;20080;-71
2022/05/26 09:56:48;;;;;;;2.45;0.70;;;17.50;54.50;;;;;;5102719;28;20031;-71
2022/05/26 09:59:30;;;;;;;3.50;0.65;;;17.40;54.30;;;;;;5085341;28;20038;-71
2022/05/26 10:02:10;;;;;;;2.75;0.60;;;17.50;55.40;;;;;;5089049;28;20034;-71
2022/05/26 10:04:53;;;;;;;1.80;0.80;;;17.50;55.30;;;;;;5102500;28;20097;-71
2022/05/26 10:07:38;;;;;;;3.20;0.50;;;17.60;55.70;;;;;;5106205;28;20038;-71
2022/05/26 10:10:29;;;;;;;3.70;0.70;;;17.30;56.00;;;;;;5106300;28;20027;-71
2022/05/26 10:13:16;;;;;;;4.70;0.60;;;17.40;58.10;;;;;;5102971;28;20035;-71
2022/05/26 10:15:50;;;;;;;3.60;0.75;;;17.10;58.80;;;;;;5106711;28;20498;-71
2022/05/26 10:18:28;;;;;;;8.20;1.20;;;17.00;59.10;;;;;;5101982;28;20076;-71
2022/05/26 10:21:09;;;;;;;4.47;0.85;;;17.20;57.90;;;;;;5099719;28;20051;-71
2022/05/26 10:23:48;;;;;;;4.00;0.80;;;17.50;56.90;;;;;;5100581;28;20031;-71
2022/05/26 10:26:32;;;;;;;1.77;0.55;;;18.10;55.90;;;;;;5096559;28;20032;-71
2022/05/26 10:29:56;;;;;;;3.55;0.75;;;18.30;56.40;;;;;;5101052;28;20032;-72
2022/05/26 10:32:46;;;;;;;5.03;0.93;;;18.50;55.30;;;;;;5061001;28;20040;-71
2022/05/26 10:35:21;;;;;;;2.10;0.90;;;18.50;55.20;;;;;;5047913;28;20063;-72
2022/05/26 10:38:08;;;;;;;4.95;1.20;;;18.60;56.40;;;;;;5089351;27;20546;-71
2022/05/26 10:40:42;;;;;;;5.03;0.50;;;18.20;57.10;;;;;;5105247;28;20055;-71
2022/05/26 10:43:30;;;;;;;4.22;0.80;;;17.60;57.90;;;;;;5105924;28;20502;-71
2022/05/26 10:45:59;;;;;;;5.25;0.98;;;17.30;58.50;;;;;;5098166;28;20031;-71
2022/05/26 10:48:37;;;;;;;3.28;0.60;;;17.40;58.60;;;;;;5100140;28;20035;-71
2022/05/26 10:51:16;;;;;;;3.08;0.80;;;17.10;58.90;;;;;;5091161;28;20020;-71
2022/05/26 10:53:49;;;;;;;4.00;0.90;;;17.40;59.90;;;;;;5103320;28;20147;-71
2022/05/26 10:56:53;;;;;;;1.20;0.47;;;18.00;57.90;;;;;;5099281;28;20362;-72
2022/05/26 10:59:39;;;;;;;5.25;0.82;;;18.10;56.80;;;;;;5105553;28;20016;-72
2022/05/26 11:02:58;;;;;;;2.67;0.75;;;18.00;57.40;;;;;;5102330;28;20027;-73
2022/05/26 11:06:02;;;;;;;5.50;0.77;;;17.70;59.00;;;;;;5080956;28;20380;-72
2022/05/26 11:08:37;;;;;;;2.40;0.75;;;17.40;58.40;;;;;;5072960;28;20039;-72
2022/05/26 11:11:23;;;;;;;3.20;0.80;;;17.50;58.80;;;;;;5105268;28;20395;-72
2022/05/26 11:14:06;;;;;;;3.60;0.70;;;18.50;57.20;;;;;;5091989;28;20437;-72
2022/05/26 11:19:44;;;;;;;2.65;0.85;;;18.60;57.50;;;;;;5104028;28;20401;-73
2022/05/26 11:22:12;;;;;;;3.60;0.77;;;18.30;57.50;;;;;;5105781;28;20080;-73
2022/05/26 11:24:39;;;;;;;6.85;0.70;;;18.00;57.40;;;;;;5109353;28;20104;-73
2022/05/26 11:27:26;;;;;;;1.90;0.80;;;17.60;56.70;;;;;;5108285;28;20039;-74
2022/05/26 11:29:59;;;;;;;3.17;0.77;;;17.50;56.80;;;;;;5103047;28;20059;-75
2022/05/26 11:38:29;;;;;;;1.98;0.52;;;17.30;55.10;;;;;;5103640;28;20436;-73
2022/05/26 11:41:00;;;;;;;1.83;0.43;;;17.50;54.80;;;;;;5108773;28;20085;-74
2022/05/26 11:43:40;;;;;;;1.05;0.40;;;18.20;53.40;;;;;;5109405;28;20557;-74
2022/05/26 11:46:09;;;;;;;3.10;0.37;;;19.40;51.10;;;;;;5104931;28;20364;-73
2022/05/26 11:48:41;;;;;;;2.45;0.70;;;19.00;52.00;;;;;;5101803;28;20052;-73
2022/05/26 11:51:27;;;;;;;5.35;0.65;;;18.30;53.30;;;;;;5109344;28;20020;-73
2022/05/26 11:53:54;;;;;;;1.70;0.40;;;17.80;53.80;;;;;;5108562;28;20031;-73
2022/05/26 11:56:25;;;;;;;1.58;0.50;;;17.50;55.80;;;;;;5109386;28;20032;-73
2022/05/26 11:59:19;;;;;;;2.03;0.50;;;17.30;56.40;;;;;;5109105;28;20049;-73
2022/05/26 12:01:58;;;;;;;2.40;0.50;;;17.30;57.10;;;;;;5106181;28;20028;-73
2022/05/26 12:04:26;;;;;;;3.25;0.40;;;17.20;58.20;;;;;;5099743;28;20101;-72
2022/05/26 12:06:59;;;;;;;3.75;0.80;;;17.00;57.60;;;;;;5104897;27;20055;-73
2022/05/26 12:09:31;;;;;;;2.65;0.70;;;16.90;58.30;;;;;;5108987;28;20020;-73
2022/05/26 12:12:15;;;;;;;3.50;0.65;;;17.00;58.90;;;;;;5097099;28;20395;-73
2022/05/26 12:14:46;;;;;;;2.22;0.50;;;17.20;58.90;;;;;;5108806;28;20055;-73
2022/05/26 12:17:31;;;;;;;2.22;0.55;;;17.80;57.10;;;;;;5105351;28;20036;-73
2022/05/26 12:19:57;;;;;;;2.00;0.45;;;19.10;54.10;;;;;;5101432;28;20059;-73
2022/05/26 12:22:31;;;;;;;5.55;0.32;;;19.10;54.10;;;;;;5107456;28;20036;-74
2022/05/26 12:24:59;;;;;;;1.48;0.50;;;18.90;54.70;;;;;;5108159;28;20308;-73
2022/05/26 12:27:54;;;;;;;4.43;1.17;;;18.70;54.40;;;;;;5103405;28;20032;-73
2022/05/26 12:30:44;;;;;;;1.40;0.40;;;19.30;53.00;;;;;;5107927;28;20506;-73
2022/05/26 12:33:15;;;;;;;5.35;1.00;;;19.40;54.10;;;;;;5107938;27;20363;-73
2022/05/26 12:36:00;;;;;;;;;;;18.60;55.00;;;;;;5118841;27;20518;-73
2022/05/26 12:38:36;;;;;;;3.00;0.63;;;18.20;55.80;;;;;;5095931;28;19912;-73
2022/05/26 12:41:29;;;;;;;4.65;0.90;;;17.90;57.00;;;;;;5108266;28;20035;-73
2022/05/26 12:44:19;;;;;;;3.03;0.80;;;17.80;57.20;;;;;;5110962;28;20065;-73
2022/05/26 12:47:19;;;;;;;3.53;0.93;;;17.80;57.60;;;;;;5093966;28;20086;-72
2022/05/26 12:50:08;;;;;;;2.97;0.50;;;18.10;55.20;;;;;;5102464;28;20085;-72
2022/05/26 12:52:41;;;;;;;2.47;0.63;;;18.60;54.10;;;;;;5107690;28;20015;-73
2022/05/26 12:55:29;;;;;;;1.25;0.57;;;18.60;54.90;;;;;;5106239;28;20106;-73
2022/05/26 12:58:17;;;;;;;2.50;0.57;;;18.10;55.70;;;;;;5105864;28;20137;-73
2022/05/26 13:00:45;;;;;;;0.77;0.30;;;17.90;55.90;;;;;;5100814;28;20509;-73
2022/05/26 13:03:29;;;;;;;4.90;0.93;;;17.90;56.40;;;;;;5103269;28;20069;-73
2022/05/26 13:06:07;;;;;;;3.00;0.70;;;17.80;57.30;;;;;;5106293;28;20050;-73
2022/05/26 13:09:05;;;;;;;4.32;0.77;;;17.60;58.10;;;;;;5105940;28;20028;-73
2022/05/26 13:11:34;;;;;;;2.13;0.70;;;17.60;58.70;;;;;;5102187;28;20043;-73
2022/05/26 13:14:08;;;;;;;2.35;0.70;;;17.70;58.70;;;;;;5107359;28;20114;-73
2022/05/26 13:16:35;;;;;;;2.92;0.60;;;17.90;57.90;;;;;;5102098;28;20043;-73
2022/05/26 13:19:21;;;;;;;2.25;0.50;;;18.20;56.30;;;;;;5090518;28;20036;-73
2022/05/26 13:21:49;;;;;;;2.13;0.70;;;18.00;56.90;;;;;;5101484;28;20417;-73
2022/05/26 13:24:25;;;;;;;1.50;0.52;;;18.00;58.00;;;;;;5100073;28;20117;-73
2022/05/26 13:26:54;;;;;;;5.18;0.73;;;17.60;56.90;;;;;;5107009;28;20031;-73
2022/05/26 13:29:21;;;;;;;5.20;0.38;;;17.50;57.30;;;;;;5103198;28;20024;-73
2022/05/26 13:34:33;;;;;;;3.13;0.60;;;18.10;56.10;;;;;;5103827;27;20039;-73
2022/05/26 13:37:15;;;;;;;4.25;0.75;;;18.30;56.00;;;;;;5098756;28;20031;-73
2022/05/26 13:39:41;;;;;;;3.78;0.52;;;18.10;55.00;;;;;;5105949;28;20055;-73
2022/05/26 13:42:07;;;;;;;2.10;0.80;;;17.90;56.50;;;;;;5106904;28;20060;-73
2022/05/26 13:44:38;;;;;;;2.92;0.63;;;17.50;57.00;;;;;;5101682;28;20040;-73
2022/05/26 13:47:08;;;;;;;3.10;0.63;;;17.50;57.20;;;;;;5101264;28;20110;-73
2022/05/26 13:50:03;;;;;;;6.05;0.57;;;17.60;58.00;;;;;;5105246;28;20137;-73
2022/05/26 13:52:32;;;;;;;1.25;0.30;;;17.60;57.90;;;;;;5098170;28;20040;-73
2022/05/26 13:55:00;;;;;;;4.50;0.82;;;17.50;59.20;;;;;;5100262;28;20043;-72
2022/05/26 13:57:48;;;;;;;2.08;0.70;;;17.40;59.60;;;;;;5105370;28;20510;-73